< < Back
Terminal Aerodrome Forecast


Current Version              Previous Versions:   1  2  3  4  5  6  7  8  9  

Terminal Aerodrome Forecast

818
FTUS42 KCAE 271120
TAFCAE
TAF
KCAE 271120Z 2712/2812 VRB03KT 5SM BR SCT150
      TEMPO 2712/2713 2SM BR BKN004
     FM271400 VRB03KT P6SM SCT020
     FM271800 VRB04KT P6SM VCSH BKN035
     FM280100 VRB03KT P6SM BKN050=

Latest METAR

538
SAUS80 KWBC 271300
MTRCAE
METAR KCAE 271256Z 16003KT 3SM BR FEW180 23/21 A2997 RMK AO2 SFC VIS 4
SLP146 T02280206


USA.gov is the U.S. government's official web portal to all federal, state and local government web resources and services.